Time;durP1;ratioP1;P1;durP2;ratioP2;P2;SDS_P1;SDS_P2;PMS_P1;PMS_P2;Temp;Humidity;BMP_temperature;BMP_pressure;BME280_temperature;BME280_humidity;BME280_pressure;Samples;Min_cycle;Max_cycle;Signal;HPM_P1;HPM_P2
2021/06/02 00:01:48;;;;;;;5.10;3.53;;;14.20;91.50;;;;;;4989898;28;20042;-72
2021/06/02 00:04:18;;;;;;;6.85;3.83;;;14.20;91.90;;;;;;4995697;28;20712;-72
2021/06/02 00:06:44;;;;;;;6.28;3.55;;;14.10;92.40;;;;;;4994423;28;20038;-72
2021/06/02 00:09:11;;;;;;;5.85;3.42;;;14.10;92.30;;;;;;4964013;28;20030;-72
2021/06/02 00:11:39;;;;;;;6.30;3.60;;;14.10;92.90;;;;;;4981365;28;20057;-71
2021/06/02 00:14:05;;;;;;;4.70;3.20;;;14.10;92.60;;;;;;4992212;28;20041;-72
2021/06/02 00:16:33;;;;;;;5.05;3.33;;;14.10;92.90;;;;;;4992348;28;20037;-72
2021/06/02 00:18:59;;;;;;;5.20;3.50;;;14.00;93.50;;;;;;4995673;28;20033;-71
2021/06/02 00:21:27;;;;;;;5.43;3.60;;;14.00;93.50;;;;;;4990601;28;20026;-71
2021/06/02 00:23:52;;;;;;;5.10;3.40;;;14.00;93.10;;;;;;5005669;28;20076;-71
2021/06/02 00:26:18;;;;;;;5.45;3.50;;;14.00;93.20;;;;;;4990524;28;20384;-72
2021/06/02 00:28:44;;;;;;;5.90;3.78;;;14.00;93.10;;;;;;4990711;28;20035;-71
2021/06/02 00:31:12;;;;;;;5.68;3.25;;;13.90;93.30;;;;;;4976313;28;20036;-71
2021/06/02 00:33:40;;;;;;;5.65;3.72;;;13.90;93.00;;;;;;4989690;28;20029;-71
2021/06/02 00:36:08;;;;;;;7.47;3.83;;;13.90;92.50;;;;;;4979734;28;20387;-71
2021/06/02 00:38:34;;;;;;;5.65;4.00;;;13.90;93.90;;;;;;5006801;28;20030;-72
2021/06/02 00:40:59;;;;;;;7.43;3.85;;;13.90;94.20;;;;;;4990774;28;20022;-72
2021/06/02 00:43:27;;;;;;;6.28;3.58;;;13.90;94.70;;;;;;4991961;28;20052;-72
2021/06/02 00:45:53;;;;;;;7.53;3.70;;;13.80;95.30;;;;;;4997399;28;20034;-71
2021/06/02 00:48:19;;;;;;;6.22;3.60;;;13.80;95.40;;;;;;4976901;28;20034;-72
2021/06/02 00:50:45;;;;;;;7.00;3.80;;;13.80;95.50;;;;;;4994795;28;20452;-71
2021/06/02 00:53:14;;;;;;;6.50;3.65;;;13.80;96.50;;;;;;4990864;28;20014;-71
2021/06/02 00:55:40;;;;;;;5.93;3.45;;;13.80;96.00;;;;;;4996982;28;20029;-72
2021/06/02 00:58:07;;;;;;;6.30;3.38;;;13.70;96.00;;;;;;5000377;28;20029;-71
2021/06/02 01:00:35;;;;;;;5.53;3.63;;;13.70;95.20;;;;;;4995287;28;20426;-71
2021/06/02 01:03:02;;;;;;;5.78;3.80;;;13.70;95.90;;;;;;4985947;28;20149;-71
2021/06/02 01:05:27;;;;;;;5.70;3.42;;;13.60;96.30;;;;;;4997283;28;20030;-71
2021/06/02 01:07:54;;;;;;;6.22;3.80;;;13.60;96.60;;;;;;4993895;28;20034;-71
2021/06/02 01:10:22;;;;;;;5.28;3.58;;;13.60;95.90;;;;;;4983779;28;20034;-71
2021/06/02 01:12:49;;;;;;;6.82;3.80;;;13.60;96.20;;;;;;4994756;28;20022;-71
2021/06/02 01:15:15;;;;;;;5.32;3.60;;;13.60;96.10;;;;;;4994056;28;20048;-71
2021/06/02 01:17:41;;;;;;;6.35;3.60;;;13.60;96.20;;;;;;4994210;28;20033;-71
2021/06/02 01:20:07;;;;;;;6.90;3.60;;;13.50;95.60;;;;;;4982072;28;20030;-71
2021/06/02 01:22:35;;;;;;;6.07;3.53;;;13.60;95.20;;;;;;4983075;28;20030;-71
2021/06/02 01:25:10;;;;;;;6.18;3.80;;;13.50;95.30;;;;;;4994038;28;20559;-72
2021/06/02 01:27:36;;;;;;;6.28;3.65;;;13.60;97.10;;;;;;4999143;28;20114;-71
2021/06/02 01:30:01;;;;;;;6.18;3.88;;;13.60;95.80;;;;;;4996761;28;20117;-71
2021/06/02 01:32:54;;;;;;;6.60;3.70;;;13.60;95.90;;;;;;4992256;28;20581;-71
2021/06/02 01:35:21;;;;;;;5.38;3.60;;;13.50;98.20;;;;;;4994579;28;20046;-71
2021/06/02 01:38:19;;;;;;;5.68;3.80;;;13.50;96.00;;;;;;4978149;28;20491;-71
2021/06/02 01:41:07;;;;;;;6.13;3.95;;;13.50;97.80;;;;;;4992855;28;20030;-71
2021/06/02 01:43:52;;;;;;;6.28;3.53;;;13.50;97.20;;;;;;4991959;28;20039;-71
2021/06/02 01:46:36;;;;;;;6.15;3.85;;;13.50;96.90;;;;;;4978270;28;20038;-72
2021/06/02 01:49:39;;;;;;;4.95;3.55;;;13.50;97.40;;;;;;4997824;28;20033;-72
2021/06/02 01:52:42;;;;;;;5.78;4.05;;;13.50;98.30;;;;;;4986640;28;20034;-72
2021/06/02 01:55:44;;;;;;;5.72;3.88;;;13.40;99.20;;;;;;4977510;28;20036;-72
2021/06/02 01:58:48;;;;;;;5.93;3.72;;;13.40;98.10;;;;;;4986754;28;20065;-71
2021/06/02 02:01:20;;;;;;;5.72;3.90;;;13.40;99.10;;;;;;4947256;28;20070;-71
2021/06/02 02:04:20;;;;;;;6.35;3.92;;;13.30;98.50;;;;;;4978476;28;20117;-71
2021/06/02 02:07:07;;;;;;;5.82;3.72;;;13.30;99.90;;;;;;4986995;28;20022;-72
2021/06/02 02:10:08;;;;;;;6.38;3.42;;;13.20;98.20;;;;;;4984813;28;20026;-72
2021/06/02 02:12:36;;;;;;;6.32;3.97;;;13.30;98.20;;;;;;4992343;28;20533;-71
2021/06/02 02:15:25;;;;;;;5.80;3.60;;;13.30;96.60;;;;;;4996363;28;20035;-72
2021/06/02 02:18:13;;;;;;;6.00;3.50;;;13.20;98.50;;;;;;4997277;28;20092;-72
2021/06/02 02:21:21;;;;;;;5.50;3.63;;;13.20;97.90;;;;;;4978061;28;20034;-72
2021/06/02 02:23:56;;;;;;;5.63;3.40;;;13.20;99.60;;;;;;4976987;28;20045;-72
2021/06/02 02:26:32;;;;;;;6.43;3.60;;;13.10;98.20;;;;;;4979311;28;20048;-72
2021/06/02 02:29:09;;;;;;;7.13;4.10;;;13.10;98.90;;;;;;4989716;28;20052;-71
2021/06/02 02:31:43;;;;;;;5.90;3.80;;;13.10;98.20;;;;;;4977877;28;20026;-71
2021/06/02 02:34:29;;;;;;;7.00;3.60;;;13.10;99.00;;;;;;4987983;28;20023;-71
2021/06/02 02:37:01;;;;;;;5.50;4.00;;;13.00;98.00;;;;;;4977344;28;20037;-73
2021/06/02 02:40:05;;;;;;;5.30;3.75;;;13.00;97.90;;;;;;4987731;28;20034;-72
2021/06/02 02:42:42;;;;;;;6.50;3.85;;;13.00;97.60;;;;;;4989193;28;20117;-71
2021/06/02 02:45:41;;;;;;;4.60;3.33;;;13.00;98.20;;;;;;5009698;28;20023;-71
2021/06/02 02:48:46;;;;;;;6.30;3.67;;;13.00;98.30;;;;;;4988788;28;20044;-72
2021/06/02 02:51:30;;;;;;;6.05;3.95;;;13.00;98.10;;;;;;4992459;28;20065;-72
2021/06/02 02:54:32;;;;;;;5.90;3.90;;;13.00;98.80;;;;;;4989689;28;20019;-71
2021/06/02 02:57:09;;;;;;;5.75;3.90;;;12.90;98.10;;;;;;4982860;28;20069;-71
2021/06/02 02:59:47;;;;;;;6.45;3.88;;;12.90;98.10;;;;;;4986353;28;20409;-71
2021/06/02 03:02:19;;;;;;;6.15;3.50;;;12.90;97.50;;;;;;4976081;28;20542;-72
2021/06/02 03:04:50;;;;;;;6.60;4.18;;;12.90;98.10;;;;;;4976970;28;20126;-71
2021/06/02 03:07:20;;;;;;;5.65;3.63;;;12.90;99.10;;;;;;4994174;28;20026;-71
2021/06/02 03:09:56;;;;;;;7.15;4.25;;;12.90;99.90;;;;;;5009723;28;20053;-72
2021/06/02 03:12:37;;;;;;;7.45;4.00;;;12.90;99.60;;;;;;4987888;28;20033;-71
2021/06/02 03:15:13;;;;;;;6.85;4.25;;;12.90;99.90;;;;;;4977086;28;20065;-71
2021/06/02 03:17:51;;;;;;;5.93;3.80;;;12.80;99.40;;;;;;4984196;28;20133;-71
2021/06/02 03:20:29;;;;;;;6.07;3.90;;;12.80;99.20;;;;;;4981233;28;20456;-71
2021/06/02 03:23:14;;;;;;;5.85;3.97;;;12.80;98.50;;;;;;4987089;28;20034;-71
2021/06/02 03:25:43;;;;;;;5.70;4.10;;;12.80;98.80;;;;;;4975475;28;20034;-71
2021/06/02 03:28:18;;;;;;;7.15;4.10;;;12.80;98.80;;;;;;4986753;28;20085;-72
2021/06/02 03:30:55;;;;;;;5.30;3.85;;;12.80;99.90;;;;;;4975174;28;20052;-71
2021/06/02 03:33:40;;;;;;;5.85;3.75;;;12.80;99.90;;;;;;4995100;28;20025;-71
2021/06/02 03:36:22;;;;;;;5.43;3.90;;;12.70;99.90;;;;;;4991810;28;20018;-72
2021/06/02 03:39:07;;;;;;;6.63;4.13;;;12.70;99.90;;;;;;4998638;28;20036;-72
2021/06/02 03:41:50;;;;;;;6.32;4.20;;;12.70;99.90;;;;;;4987733;28;20097;-72
2021/06/02 03:44:54;;;;;;;7.90;3.92;;;12.60;99.90;;;;;;4986419;28;20026;-73
2021/06/02 03:47:33;;;;;;;5.88;3.80;;;12.60;99.90;;;;;;4975802;28;20026;-72
2021/06/02 03:50:27;;;;;;;7.00;4.15;;;12.60;99.90;;;;;;4970599;28;20189;-72
2021/06/02 03:53:23;;;;;;;6.20;3.78;;;12.60;99.90;;;;;;4973569;28;20042;-72
2021/06/02 03:56:18;;;;;;;6.18;3.90;;;12.60;99.90;;;;;;4976380;28;20049;-72
2021/06/02 03:58:50;;;;;;;5.35;3.83;;;12.60;99.90;;;;;;4984680;28;20037;-72
2021/06/02 04:01:38;;;;;;;7.15;4.15;;;12.60;99.90;;;;;;4986271;28;20490;-71
2021/06/02 04:04:31;;;;;;;6.10;3.70;;;12.60;99.90;;;;;;4992708;28;20306;-72
2021/06/02 04:07:06;;;;;;;7.45;4.00;;;12.60;99.90;;;;;;4981026;28;20039;-72
2021/06/02 04:09:59;;;;;;;6.32;3.70;;;12.60;99.90;;;;;;5005917;28;20182;-72
2021/06/02 04:12:40;;;;;;;7.40;4.00;;;12.60;99.90;;;;;;5006749;28;20023;-72
2021/06/02 04:15:11;;;;;;;5.97;3.85;;;12.50;99.90;;;;;;4969193;28;20039;-72
2021/06/02 04:17:37;;;;;;;5.82;3.83;;;12.50;99.90;;;;;;4980079;28;20031;-72
2021/06/02 04:20:06;;;;;;;5.28;3.83;;;12.50;99.90;;;;;;4969597;28;20046;-72
2021/06/02 04:22:32;;;;;;;6.03;3.78;;;12.50;99.90;;;;;;4985915;28;20034;-71
2021/06/02 04:24:59;;;;;;;5.57;3.63;;;12.50;99.90;;;;;;4986481;28;20023;-72
2021/06/02 04:27:24;;;;;;;5.40;3.70;;;12.50;99.90;;;;;;4976687;28;20438;-72
2021/06/02 04:29:53;;;;;;;7.47;3.80;;;12.60;99.90;;;;;;4985526;28;20031;-72
2021/06/02 04:32:21;;;;;;;6.25;3.75;;;12.60;99.90;;;;;;4978223;28;20025;-73
2021/06/02 04:34:46;;;;;;;5.43;3.85;;;12.60;99.90;;;;;;4993506;28;20050;-72
2021/06/02 04:37:17;;;;;;;6.25;3.50;;;12.60;99.90;;;;;;4990401;28;20437;-72
2021/06/02 04:39:42;;;;;;;6.28;3.88;;;12.60;99.90;;;;;;4994134;28;20062;-73
2021/06/02 04:42:09;;;;;;;5.45;3.83;;;12.70;99.90;;;;;;4990168;28;20034;-72
2021/06/02 04:44:37;;;;;;;5.60;3.63;;;12.70;99.90;;;;;;4988788;28;20034;-72
2021/06/02 04:47:04;;;;;;;5.82;3.80;;;12.70;99.90;;;;;;4999533;28;20030;-72
2021/06/02 04:49:48;;;;;;;6.55;3.65;;;12.70;99.90;;;;;;4996290;28;20133;-72
2021/06/02 04:52:32;;;;;;;5.93;4.25;;;12.70;99.90;;;;;;4991715;28;20371;-73
2021/06/02 04:55:37;;;;;;;6.35;3.80;;;12.80;99.90;;;;;;4990576;28;20376;-72
2021/06/02 04:58:20;;;;;;;6.45;3.92;;;12.80;99.90;;;;;;4986581;28;20061;-72
2021/06/02 05:01:29;;;;;;;9.18;4.15;;;12.80;99.90;;;;;;4991303;28;20039;-72
2021/06/02 05:04:45;;;;;;;7.45;4.15;;;12.90;99.90;;;;;;5004627;28;20047;-72
2021/06/02 05:07:28;;;;;;;6.00;4.00;;;12.90;99.90;;;;;;4954088;28;20038;-72
2021/06/02 05:10:55;;;;;;;6.20;4.00;;;12.90;99.90;;;;;;4985979;28;20110;-72
2021/06/02 05:13:49;;;;;;;12.63;4.28;;;13.00;99.90;;;;;;4904177;29;20200;-72
2021/06/02 05:16:20;;;;;;;5.65;4.00;;;13.00;99.90;;;;;;4983942;28;20046;-72
2021/06/02 05:18:52;;;;;;;5.28;3.70;;;13.00;99.90;;;;;;4975946;28;20089;-71
2021/06/02 05:24:48;;;;;;;7.40;4.00;;;13.10;99.90;;;;;;4974952;28;20120;-71
2021/06/02 05:27:51;;;;;;;5.72;3.95;;;13.20;99.90;;;;;;4973815;28;20034;-72
2021/06/02 05:30:42;;;;;;;5.72;3.67;;;13.20;99.90;;;;;;4974267;28;20030;-72
2021/06/02 05:33:25;;;;;;;6.25;4.00;;;13.20;99.90;;;;;;4974429;28;20026;-71
2021/06/02 05:36:03;;;;;;;7.05;4.20;;;13.30;99.90;;;;;;4972689;28;20472;-71
2021/06/02 05:38:52;;;;;;;5.43;3.80;;;13.40;99.90;;;;;;4993827;28;20042;-71
2021/06/02 05:41:46;;;;;;;5.68;4.13;;;13.40;99.90;;;;;;4984597;28;20031;-71
2021/06/02 05:44:30;;;;;;;6.85;3.60;;;13.50;99.90;;;;;;4978911;28;20057;-71
2021/06/02 05:47:16;;;;;;;5.93;4.30;;;13.60;99.90;;;;;;4994375;28;20034;-71
2021/06/02 05:50:21;;;;;;;7.03;4.30;;;13.60;99.90;;;;;;4953053;28;20053;-71
2021/06/02 05:53:14;;;;;;;7.35;4.25;;;13.70;99.90;;;;;;4989550;28;20565;-71
2021/06/02 05:55:45;;;;;;;8.40;4.97;;;13.70;99.90;;;;;;4997210;28;20058;-71
2021/06/02 05:58:29;;;;;;;6.25;4.15;;;13.80;99.90;;;;;;4990051;28;20027;-72
2021/06/02 06:01:45;;;;;;;7.05;4.80;;;13.80;99.90;;;;;;4990755;28;20030;-71
2021/06/02 06:04:30;;;;;;;7.43;4.55;;;13.90;99.90;;;;;;4956242;28;21422;-71
2021/06/02 06:07:01;;;;;;;8.65;6.20;;;14.00;99.90;;;;;;4994826;28;20088;-71
2021/06/02 06:10:05;;;;;;;7.28;5.30;;;14.10;99.90;;;;;;4993412;28;20093;-71
2021/06/02 06:12:46;;;;;;;9.10;5.70;;;14.20;99.90;;;;;;4939713;29;20085;-71
2021/06/02 06:15:39;;;;;;;5.63;3.92;;;14.30;99.90;;;;;;4941648;29;20098;-71
2021/06/02 06:18:23;;;;;;;7.85;4.47;;;14.40;99.90;;;;;;4973058;28;20043;-71
2021/06/02 06:21:39;;;;;;;6.43;3.80;;;14.50;99.90;;;;;;4995632;28;20090;-71
2021/06/02 06:24:14;;;;;;;7.47;4.03;;;14.50;99.90;;;;;;4929920;28;20034;-71
2021/06/02 06:26:47;;;;;;;9.15;3.88;;;14.60;99.90;;;;;;5004759;28;20165;-71
2021/06/02 06:29:45;;;;;;;6.90;4.10;;;14.70;99.90;;;;;;4994544;28;20045;-71
2021/06/02 06:32:13;;;;;;;5.95;3.95;;;14.80;99.90;;;;;;4920037;28;20099;-70
2021/06/02 06:34:39;;;;;;;7.10;3.97;;;14.80;99.90;;;;;;4998013;28;20030;-71
2021/06/02 06:37:07;;;;;;;6.78;3.65;;;14.90;98.20;;;;;;4981856;28;20033;-72
2021/06/02 06:39:54;;;;;;;12.25;4.15;;;15.00;95.40;;;;;;4989789;28;20029;-71
2021/06/02 06:42:27;;;;;;;6.85;3.50;;;15.00;97.40;;;;;;4972323;28;20034;-71
2021/06/02 06:44:57;;;;;;;6.28;3.85;;;15.10;99.70;;;;;;4983269;28;20444;-71
2021/06/02 06:47:23;;;;;;;6.10;3.85;;;15.20;97.20;;;;;;4985623;28;20032;-71
2021/06/02 06:49:54;;;;;;;6.70;3.83;;;15.20;94.40;;;;;;4995833;28;20559;-71
2021/06/02 06:52:24;;;;;;;6.43;3.42;;;15.30;93.10;;;;;;4989454;28;20517;-71
2021/06/02 06:54:54;;;;;;;17.17;4.70;;;15.40;92.60;;;;;;4971102;28;20033;-71
2021/06/02 06:57:20;;;;;;;8.98;4.15;;;15.40;94.30;;;;;;4991590;28;20089;-71
2021/06/02 06:59:50;;;;;;;6.40;3.58;;;15.50;93.90;;;;;;4978047;28;20030;-71
2021/06/02 07:02:19;;;;;;;6.95;3.83;;;15.50;93.40;;;;;;4997949;28;20042;-71
2021/06/02 07:04:49;;;;;;;9.57;7.25;;;15.60;94.30;;;;;;4980416;28;20045;-71
2021/06/02 07:07:17;;;;;;;23.98;20.38;;;15.70;96.50;;;;;;4992711;28;20400;-71
2021/06/02 07:09:50;;;;;;;12.27;9.00;;;15.70;96.80;;;;;;4979809;28;20629;-71
2021/06/02 07:12:19;;;;;;;19.33;10.88;;;15.90;93.90;;;;;;4993833;28;20022;-71
2021/06/02 07:14:48;;;;;;;7.72;5.45;;;15.90;95.80;;;;;;4980897;28;20169;-71
2021/06/02 07:17:13;;;;;;;12.38;4.68;;;16.00;96.70;;;;;;4996901;28;20042;-71
2021/06/02 07:19:42;;;;;;;34.35;12.30;;;16.10;95.30;;;;;;4978770;28;20479;-72
2021/06/02 07:22:08;;;;;;;20.00;11.85;;;16.20;94.70;;;;;;4977320;28;20033;-71
2021/06/02 07:24:34;;;;;;;19.15;7.70;;;16.30;93.50;;;;;;5005855;28;20058;-72
2021/06/02 07:27:00;;;;;;;10.30;4.90;;;16.40;94.20;;;;;;4996773;28;20029;-72
2021/06/02 07:29:27;;;;;;;17.42;5.07;;;16.50;94.00;;;;;;4993296;28;20097;-71
2021/06/02 07:31:52;;;;;;;12.75;4.00;;;16.60;94.10;;;;;;4992683;28;21445;-72
2021/06/02 07:34:20;;;;;;;6.15;3.78;;;16.70;92.90;;;;;;4991338;28;20455;-72
2021/06/02 07:36:48;;;;;;;5.70;3.50;;;16.80;89.80;;;;;;4995570;28;20033;-72
2021/06/02 07:39:16;;;;;;;5.70;3.40;;;17.00;91.30;;;;;;4988184;28;20029;-71
2021/06/02 07:41:41;;;;;;;15.18;4.65;;;17.30;91.50;;;;;;4989421;28;20038;-72
2021/06/02 07:44:07;;;;;;;6.10;3.50;;;17.60;94.90;;;;;;4989812;28;20510;-72
2021/06/02 07:46:34;;;;;;;10.65;3.83;;;18.00;91.40;;;;;;4989097;28;20025;-72
2021/06/02 07:49:02;;;;;;;9.27;3.80;;;18.30;96.20;;;;;;4990844;28;20027;-72
2021/06/02 07:51:30;;;;;;;6.55;3.97;;;18.60;96.50;;;;;;4995313;28;20037;-72
2021/06/02 07:53:56;;;;;;;6.65;3.55;;;18.90;91.40;;;;;;4987372;28;20030;-72
2021/06/02 07:56:22;;;;;;;10.02;3.53;;;19.30;89.30;;;;;;4993069;28;20030;-72
2021/06/02 07:58:50;;;;;;;17.15;3.92;;;19.60;92.80;;;;;;4990244;28;20053;-73
2021/06/02 08:01:15;;;;;;;11.00;6.55;;;19.90;91.10;;;;;;4990982;28;20081;-71
2021/06/02 08:03:41;;;;;;;6.32;3.60;;;20.20;90.50;;;;;;4990459;28;20042;-72
2021/06/02 08:06:07;;;;;;;6.35;3.83;;;20.40;80.40;;;;;;4989275;28;20030;-73
2021/06/02 08:08:35;;;;;;;5.30;3.25;;;20.70;85.60;;;;;;4971060;28;20368;-73
2021/06/02 08:11:00;;;;;;;12.23;9.65;;;21.00;86.40;;;;;;4994735;28;20026;-72
2021/06/02 08:13:29;;;;;;;10.27;7.22;;;21.20;84.80;;;;;;4991455;28;21578;-71
2021/06/02 08:15:54;;;;;;;12.05;8.80;;;21.40;90.20;;;;;;4993104;28;20041;-72
2021/06/02 08:18:22;;;;;;;7.40;4.97;;;21.70;89.60;;;;;;4991303;28;20026;-72
2021/06/02 08:20:50;;;;;;;6.30;3.78;;;21.90;74.20;;;;;;4989231;28;20045;-72
2021/06/02 08:23:20;;;;;;;12.77;11.23;;;22.10;78.90;;;;;;4987795;28;20673;-73
2021/06/02 08:25:46;;;;;;;6.68;4.20;;;22.30;76.10;;;;;;4990635;28;20177;-73
2021/06/02 08:28:14;;;;;;;6.78;3.80;;;22.30;76.50;;;;;;4991047;28;21856;-73
2021/06/02 08:30:42;;;;;;;6.93;4.13;;;22.50;76.70;;;;;;5003581;28;20184;-72
2021/06/02 08:33:08;;;;;;;9.10;6.55;;;22.50;74.00;;;;;;4993182;28;20105;-73
2021/06/02 08:35:34;;;;;;;10.20;3.95;;;22.70;76.20;;;;;;4994370;28;20030;-73
2021/06/02 08:38:04;;;;;;;9.77;3.80;;;22.80;75.30;;;;;;4985965;28;20027;-72
2021/06/02 08:40:32;;;;;;;7.25;3.30;;;23.00;73.80;;;;;;4986485;28;20119;-73
2021/06/02 08:42:58;;;;;;;15.30;3.70;;;23.10;72.00;;;;;;4994720;28;20066;-73
2021/06/02 08:45:26;;;;;;;7.32;3.40;;;23.20;70.30;;;;;;4996465;28;20061;-73
2021/06/02 08:47:55;;;;;;;13.52;3.60;;;23.30;69.70;;;;;;4993457;28;20095;-73
2021/06/02 08:50:21;;;;;;;7.25;3.45;;;23.20;69.80;;;;;;4976655;28;20038;-73
2021/06/02 08:52:46;;;;;;;5.15;3.13;;;23.30;69.80;;;;;;4989219;28;20026;-73
2021/06/02 08:55:17;;;;;;;7.47;3.40;;;23.30;66.50;;;;;;4989040;28;20032;-73
2021/06/02 08:57:49;;;;;;;4.45;2.90;;;23.40;66.40;;;;;;4995023;28;20048;-73
2021/06/02 09:00:16;;;;;;;5.93;3.13;;;23.50;64.80;;;;;;4991863;28;20397;-73
2021/06/02 09:02:43;;;;;;;8.30;3.28;;;23.60;68.60;;;;;;4988223;28;20078;-73
2021/06/02 09:05:09;;;;;;;8.32;3.40;;;23.70;70.90;;;;;;4991434;28;20037;-73
2021/06/02 09:07:40;;;;;;;6.03;3.30;;;23.80;66.10;;;;;;4987899;28;20053;-73
2021/06/02 09:10:13;;;;;;;7.90;3.30;;;23.90;67.00;;;;;;4991326;28;20033;-73
2021/06/02 09:12:45;;;;;;;6.22;3.45;;;24.00;64.40;;;;;;4989099;28;20029;-73
2021/06/02 09:15:15;;;;;;;27.23;24.38;;;23.90;63.50;;;;;;4998033;28;20067;-73
2021/06/02 09:17:59;;;;;;;13.82;9.18;;;24.10;68.90;;;;;;4997324;28;20045;-73
2021/06/02 09:20:37;;;;;;;8.95;4.18;;;24.20;65.20;;;;;;4994312;28;20094;-73
2021/06/02 09:23:29;;;;;;;10.85;3.92;;;24.30;69.00;;;;;;4996902;28;20034;-73
2021/06/02 09:26:12;;;;;;;6.15;3.47;;;24.30;58.80;;;;;;4982875;28;20042;-73
2021/06/02 09:29:11;;;;;;;6.57;3.25;;;24.30;56.20;;;;;;4992473;28;20408;-73
2021/06/02 09:31:43;;;;;;;5.75;3.35;;;24.20;59.40;;;;;;4994019;28;20030;-73
2021/06/02 09:34:23;;;;;;;6.45;3.38;;;24.30;62.70;;;;;;4998673;28;20025;-73
2021/06/02 09:36:53;;;;;;;4.80;3.13;;;24.40;61.80;;;;;;4996723;28;20026;-73
2021/06/02 09:39:21;;;;;;;7.57;3.33;;;24.40;64.80;;;;;;4999086;28;20019;-73
2021/06/02 09:41:54;;;;;;;5.65;3.55;;;24.50;65.80;;;;;;4996944;28;20027;-73
2021/06/02 09:44:26;;;;;;;6.43;3.50;;;24.60;63.00;;;;;;4994899;28;20423;-73
2021/06/02 09:47:01;;;;;;;6.18;3.55;;;24.60;65.00;;;;;;4994540;28;20026;-73
2021/06/02 09:49:32;;;;;;;8.75;7.15;;;24.80;65.90;;;;;;4991985;28;20129;-73
2021/06/02 09:51:59;;;;;;;6.40;4.13;;;24.80;61.20;;;;;;4999326;28;20022;-73
2021/06/02 09:54:25;;;;;;;6.03;3.80;;;24.70;64.30;;;;;;4993901;28;20049;-73
2021/06/02 09:56:53;;;;;;;7.78;3.95;;;24.80;65.80;;;;;;4990267;28;20085;-73
2021/06/02 09:59:23;;;;;;;10.73;9.65;;;24.80;62.80;;;;;;4996231;28;20057;-73
2021/06/02 10:02:03;;;;;;;7.18;3.70;;;24.90;64.00;;;;;;4993408;28;20635;-73
2021/06/02 10:04:36;;;;;;;7.38;3.38;;;24.90;62.50;;;;;;4990923;28;20169;-73
2021/06/02 10:07:03;;;;;;;6.20;3.53;;;24.90;65.60;;;;;;4995722;28;20034;-73
2021/06/02 10:09:33;;;;;;;6.15;3.58;;;24.90;58.50;;;;;;4992621;28;20352;-73
2021/06/02 10:12:10;;;;;;;5.70;3.22;;;24.70;58.40;;;;;;4996728;28;20017;-73
2021/06/02 10:14:55;;;;;;;5.95;3.08;;;24.70;58.70;;;;;;4995405;28;20124;-73
2021/06/02 10:17:31;;;;;;;7.20;3.40;;;24.70;59.20;;;;;;4990159;28;20030;-73
2021/06/02 10:20:27;;;;;;;8.57;3.42;;;24.70;56.80;;;;;;4995646;28;20026;-73
2021/06/02 10:22:59;;;;;;;15.75;3.78;;;24.80;59.30;;;;;;4984597;28;20030;-73
2021/06/02 10:25:28;;;;;;;7.68;3.58;;;24.90;60.20;;;;;;4996409;28;20081;-73
2021/06/02 10:27:56;;;;;;;6.25;2.92;;;25.00;61.90;;;;;;4971199;28;20030;-73
2021/06/02 10:30:24;;;;;;;6.68;2.97;;;25.00;55.50;;;;;;4989438;28;20018;-73
2021/06/02 10:32:51;;;;;;;8.20;3.30;;;25.20;59.40;;;;;;4990860;28;20022;-73
2021/06/02 10:35:19;;;;;;;5.72;2.90;;;25.30;59.60;;;;;;4991461;28;20105;-74
2021/06/02 10:37:47;;;;;;;5.00;3.10;;;25.40;59.30;;;;;;4989698;28;20076;-73
2021/06/02 10:40:19;;;;;;;7.72;2.97;;;25.50;56.40;;;;;;4993745;28;20111;-73
2021/06/02 10:42:58;;;;;;;6.75;3.05;;;25.50;55.80;;;;;;4970969;28;20031;-73
2021/06/02 10:45:29;;;;;;;8.38;3.08;;;25.70;60.80;;;;;;4994699;28;20038;-73
2021/06/02 10:48:02;;;;;;;4.38;2.75;;;25.90;57.50;;;;;;4982902;28;20030;-73
2021/06/02 10:50:39;;;;;;;37.88;34.25;;;26.00;56.80;;;;;;4994214;28;20026;-73
2021/06/02 10:53:25;;;;;;;8.90;4.95;;;26.10;56.90;;;;;;4992093;28;20030;-73
2021/06/02 10:55:57;;;;;;;12.60;8.80;;;26.20;47.30;;;;;;4991326;28;20347;-72
2021/06/02 10:58:45;;;;;;;5.72;3.08;;;26.20;58.00;;;;;;4994491;28;20018;-72
2021/06/02 11:01:16;;;;;;;49.13;6.88;;;26.20;51.40;;;;;;4990018;28;20026;-72
2021/06/02 11:03:43;;;;;;;10.57;3.08;;;26.30;54.10;;;;;;4988504;28;20125;-73
2021/06/02 11:06:14;;;;;;;8.07;3.00;;;26.50;56.40;;;;;;4988023;28;20038;-72
2021/06/02 11:08:52;;;;;;;6.93;2.80;;;26.60;58.60;;;;;;4992025;28;20069;-73
2021/06/02 11:11:24;;;;;;;4.63;2.42;;;26.60;49.70;;;;;;4994214;28;20041;-73
2021/06/02 11:14:21;;;;;;;5.10;2.70;;;26.20;55.20;;;;;;5005223;28;20037;-72
2021/06/02 11:16:47;;;;;;;4.80;2.70;;;26.20;50.80;;;;;;4993967;28;20029;-73
2021/06/02 11:19:26;;;;;;;11.82;3.50;;;26.30;51.90;;;;;;4992427;28;20143;-73
2021/06/02 11:21:52;;;;;;;5.82;2.65;;;26.50;55.10;;;;;;4988228;28;20022;-73
2021/06/02 11:24:33;;;;;;;3.95;2.60;;;26.60;53.10;;;;;;4990910;28;20026;-73
2021/06/02 11:27:11;;;;;;;4.32;2.53;;;26.70;51.70;;;;;;4993079;28;20038;-73
2021/06/02 11:32:22;;;;;;;4.95;2.70;;;26.60;49.40;;;;;;4988956;28;20101;-73
2021/06/02 11:34:52;;;;;;;5.38;2.95;;;26.70;51.00;;;;;;4992362;28;20030;-73
2021/06/02 11:37:23;;;;;;;5.95;2.75;;;26.80;50.50;;;;;;4991637;28;20050;-73
2021/06/02 11:39:51;;;;;;;5.60;2.60;;;26.90;52.80;;;;;;4994017;28;20054;-73
2021/06/02 11:42:27;;;;;;;5.35;2.70;;;27.10;51.60;;;;;;4981595;28;20413;-73
2021/06/02 11:44:59;;;;;;;6.05;2.80;;;27.40;56.00;;;;;;4995009;28;20061;-73
2021/06/02 11:47:25;;;;;;;7.35;2.60;;;27.40;49.80;;;;;;4992223;28;20061;-73
2021/06/02 11:49:53;;;;;;;4.97;2.80;;;27.40;48.70;;;;;;4997051;28;20026;-73
2021/06/02 11:52:19;;;;;;;5.30;2.60;;;27.30;45.60;;;;;;4990154;28;20048;-73
2021/06/02 11:54:55;;;;;;;6.03;2.53;;;27.40;50.40;;;;;;4995465;28;20515;-73
2021/06/02 11:57:32;;;;;;;5.05;2.47;;;27.60;51.30;;;;;;4994569;28;20073;-73
2021/06/02 12:00:06;;;;;;;4.63;2.58;;;27.50;49.20;;;;;;5005354;28;20026;-73
2021/06/02 12:02:32;;;;;;;4.15;2.40;;;27.60;50.20;;;;;;4991949;28;20049;-74
2021/06/02 12:05:20;;;;;;;7.43;2.80;;;27.70;51.70;;;;;;4989396;28;20021;-73
2021/06/02 12:07:48;;;;;;;5.22;2.47;;;27.70;47.40;;;;;;5003687;28;20045;-73
2021/06/02 12:10:14;;;;;;;4.53;2.50;;;27.70;49.80;;;;;;4990001;28;20022;-73
2021/06/02 12:12:40;;;;;;;5.85;2.60;;;27.80;46.10;;;;;;4994832;28;20029;-73
2021/06/02 12:15:07;;;;;;;3.83;2.50;;;28.00;52.40;;;;;;4990367;28;20135;-73
2021/06/02 12:17:33;;;;;;;6.07;2.67;;;28.20;50.40;;;;;;4995316;28;20124;-75
2021/06/02 12:20:08;;;;;;;4.07;2.50;;;28.20;52.00;;;;;;4997446;28;20030;-71
2021/06/02 12:22:36;;;;;;;8.18;4.68;;;28.30;48.90;;;;;;4988478;28;20030;-71
2021/06/02 12:25:18;;;;;;;4.00;2.33;;;28.50;51.00;;;;;;4987595;28;20140;-71
2021/06/02 12:27:50;;;;;;;5.20;2.40;;;28.60;50.20;;;;;;4992267;28;20038;-72
2021/06/02 12:30:22;;;;;;;5.25;2.60;;;28.60;47.60;;;;;;4988891;28;20449;-71
2021/06/02 12:32:52;;;;;;;4.03;2.50;;;28.60;47.80;;;;;;4989634;28;20036;-72
2021/06/02 12:35:27;;;;;;;5.40;2.47;;;28.80;46.10;;;;;;4990370;28;20022;-71
2021/06/02 12:38:17;;;;;;;4.75;2.53;;;28.80;46.70;;;;;;5002125;28;20154;-71
2021/06/02 12:40:52;;;;;;;4.23;2.33;;;28.90;49.40;;;;;;4988983;28;20035;-72
2021/06/02 12:43:29;;;;;;;4.18;2.42;;;29.10;51.20;;;;;;4991861;28;20030;-73
2021/06/02 12:46:17;;;;;;;4.30;2.45;;;29.20;54.30;;;;;;4980903;28;20029;-73
2021/06/02 12:48:47;;;;;;;4.05;2.40;;;29.40;49.10;;;;;;5005501;28;20487;-72
2021/06/02 12:51:23;;;;;;;3.92;2.47;;;29.40;51.10;;;;;;4998700;28;20113;-72
2021/06/02 12:53:51;;;;;;;4.68;2.50;;;29.40;47.50;;;;;;4994082;28;20038;-73
2021/06/02 12:56:18;;;;;;;4.60;2.40;;;29.50;48.10;;;;;;4999538;28;20026;-72
2021/06/02 12:58:49;;;;;;;4.75;2.22;;;29.70;51.30;;;;;;4997550;28;20034;-72
2021/06/02 13:01:15;;;;;;;3.47;2.20;;;29.50;44.60;;;;;;4997958;28;20051;-72
2021/06/02 13:03:46;;;;;;;4.38;2.58;;;29.30;46.20;;;;;;4998854;28;20034;-72
2021/06/02 13:06:25;;;;;;;5.85;2.50;;;29.20;45.10;;;;;;4997411;28;20458;-73
2021/06/02 13:08:51;;;;;;;4.95;2.35;;;29.10;47.70;;;;;;4983669;28;20029;-72
2021/06/02 13:11:28;;;;;;;5.03;2.38;;;29.10;46.60;;;;;;4998913;28;20362;-72
2021/06/02 13:13:57;;;;;;;3.60;2.42;;;29.00;48.40;;;;;;4994927;28;20044;-72
2021/06/02 13:16:25;;;;;;;4.80;2.35;;;28.80;42.30;;;;;;4993307;28;20023;-73
2021/06/02 13:19:06;;;;;;;4.88;2.40;;;28.90;50.30;;;;;;4995844;28;20472;-73
2021/06/02 13:21:36;;;;;;;4.25;2.30;;;28.60;41.50;;;;;;4995969;28;20061;-73
2021/06/02 13:24:16;;;;;;;3.78;2.42;;;28.60;44.30;;;;;;4980653;28;20032;-73
2021/06/02 13:26:46;;;;;;;4.43;2.50;;;28.70;48.80;;;;;;4980203;28;20387;-73
2021/06/02 13:29:15;;;;;;;4.32;2.50;;;28.70;51.10;;;;;;4983374;28;20093;-72
2021/06/02 13:31:53;;;;;;;4.88;2.63;;;28.50;47.70;;;;;;4983165;28;20054;-73
2021/06/02 13:34:37;;;;;;;4.55;2.60;;;28.50;45.30;;;;;;4999073;28;20018;-73